Time;durP1;ratioP1;P1;durP2;ratioP2;P2;SDS_P1;SDS_P2;PMS_P1;PMS_P2;Temp;Humidity;BMP_temperature;BMP_pressure;BME280_temperature;BME280_humidity;BME280_pressure;Samples;Min_cycle;Max_cycle;Signal;HPM_P1;HPM_P2
2023/03/17 00:00:46;;;;;;;2.65;2.45;;;;;;;8.75;95.55;100667.94;10401290;28;20381;-79
2023/03/17 00:05:46;;;;;;;3.90;2.80;;;;;;;8.76;95.93;100668.78;10419857;28;20037;-80
2023/03/17 00:10:47;;;;;;;3.47;2.63;;;;;;;8.69;95.92;100657.91;10418511;28;20064;-79
2023/03/17 00:15:51;;;;;;;2.63;2.42;;;;;;;8.60;96.35;100661.75;10418207;28;20032;-78
2023/03/17 00:20:52;;;;;;;3.80;3.30;;;;;;;8.65;96.99;100655.75;10403100;28;20048;-79
2023/03/17 00:25:53;;;;;;;5.22;3.42;;;;;;;8.63;97.51;100655.97;10401394;28;20033;-79
2023/03/17 00:30:55;;;;;;;4.63;3.42;;;;;;;8.58;97.38;100675.44;10418045;28;20140;-79
2023/03/17 00:35:55;;;;;;;4.05;3.40;;;;;;;8.61;98.63;100675.06;10400973;28;20030;-79
2023/03/17 00:40:56;;;;;;;2.28;2.08;;;;;;;8.63;97.38;100665.94;10416819;28;20487;-79
2023/03/17 00:45:56;;;;;;;3.67;3.03;;;;;;;8.71;97.31;100634.28;10418938;28;20034;-79
2023/03/17 00:50:57;;;;;;;3.72;2.65;;;;;;;8.77;97.46;100652.38;10416750;28;20488;-79
2023/03/17 00:55:57;;;;;;;5.55;2.97;;;;;;;8.75;96.33;100654.44;10417562;28;20030;-80
2023/03/17 01:00:58;;;;;;;4.50;2.63;;;;;;;8.84;97.39;100656.00;10418132;28;20069;-79
2023/03/17 01:05:59;;;;;;;4.95;2.80;;;;;;;8.82;96.29;100655.34;10423470;28;20033;-79
2023/03/17 01:11:00;;;;;;;4.00;2.95;;;;;;;8.82;95.69;100651.81;10399638;28;20071;-79
2023/03/17 01:16:01;;;;;;;2.47;2.15;;;;;;;8.84;95.33;100652.47;10416888;28;20037;-79
2023/03/17 01:21:02;;;;;;;3.13;2.70;;;;;;;8.93;95.02;100645.88;10416640;28;20397;-80
2023/03/17 01:26:02;;;;;;;6.93;3.55;;;;;;;8.94;94.27;100628.69;10417844;28;20048;-80
2023/03/17 01:31:03;;;;;;;5.07;2.78;;;;;;;8.98;95.34;100623.72;10398628;28;20075;-79
2023/03/17 01:47:58;;;;;;;2.08;1.95;;;;;;;8.95;93.85;100619.53;10416238;28;20033;-80
2023/03/17 01:52:58;;;;;;;3.30;2.15;;;;;;;8.98;93.16;100629.13;10415592;28;20041;-79
2023/03/17 01:57:58;;;;;;;3.40;2.53;;;;;;;8.98;93.78;100605.66;10397713;28;20025;-79
2023/03/17 02:02:59;;;;;;;4.70;3.10;;;;;;;9.02;92.68;100608.78;10414227;28;20044;-80
2023/03/17 02:07:59;;;;;;;7.18;2.60;;;;;;;9.05;94.16;100606.53;10414881;28;20061;-79
2023/03/17 02:13:02;;;;;;;3.00;2.80;;;;;;;9.11;94.29;100606.78;10415321;28;20029;-80
2023/03/17 02:18:03;;;;;;;2.85;2.65;;;;;;;9.13;94.45;100591.25;10414874;28;20025;-79
2023/03/17 02:23:04;;;;;;;4.32;3.20;;;;;;;9.10;94.11;100599.72;10414267;28;20026;-79
2023/03/17 02:28:12;;;;;;;4.90;2.80;;;;;;;9.08;94.86;100600.75;10414607;28;20037;-79
2023/03/17 02:33:12;;;;;;;2.55;2.35;;;;;;;8.96;92.46;100596.06;10416575;28;20050;-80
2023/03/17 02:38:13;;;;;;;6.40;2.90;;;;;;;9.07;94.90;100593.69;10412780;28;20053;-80
2023/03/17 02:43:13;;;;;;;3.15;2.53;;;;;;;9.02;93.90;100589.88;10413834;28;20041;-79
2023/03/17 02:48:14;;;;;;;3.03;2.78;;;;;;;9.07;94.69;100595.53;10413583;28;20033;-76
2023/03/17 02:53:14;;;;;;;2.55;2.35;;;;;;;9.13;94.69;100591.25;10379456;28;20033;-76
2023/03/17 02:58:15;;;;;;;4.88;2.75;;;;;;;9.12;93.96;100592.25;10413121;28;20040;-76
2023/03/17 03:03:15;;;;;;;2.92;2.67;;;;;;;9.10;95.13;100583.53;10414772;28;20056;-76
2023/03/17 03:08:16;;;;;;;3.22;2.13;;;;;;;9.09;95.60;100590.75;10413834;28;20120;-76
2023/03/17 03:13:16;;;;;;;3.17;2.88;;;;;;;9.08;95.79;100602.59;10413744;28;20041;-77
2023/03/17 03:18:17;;;;;;;2.80;2.53;;;;;;;9.08;94.45;100603.44;10411597;28;20038;-76
2023/03/17 03:23:17;;;;;;;4.10;2.67;;;;;;;9.13;94.89;100594.78;10414087;28;20034;-76
2023/03/17 03:28:18;;;;;;;2.42;2.22;;;;;;;9.16;95.36;100612.47;10413282;28;20120;-76
2023/03/17 03:33:18;;;;;;;4.47;2.40;;;;;;;9.18;96.57;100611.22;10400774;28;20192;-76
2023/03/17 03:38:18;;;;;;;2.50;2.30;;;;;;;9.19;96.92;100615.59;10405260;28;20462;-77
2023/03/17 03:43:19;;;;;;;5.63;2.00;;;;;;;9.15;96.60;100608.06;10422856;28;20132;-76
2023/03/17 03:48:20;;;;;;;7.75;2.55;;;;;;;9.10;97.12;100621.34;10418758;28;20458;-77
2023/03/17 03:53:21;;;;;;;2.40;2.10;;;;;;;9.05;96.68;100624.59;10402122;28;20083;-77
2023/03/17 03:58:21;;;;;;;4.28;2.72;;;;;;;9.02;97.07;100639.31;10401703;28;20080;-77
2023/03/17 04:03:21;;;;;;;5.53;3.00;;;;;;;9.03;97.35;100630.22;10417601;28;20033;-76
2023/03/17 04:08:22;;;;;;;3.22;2.42;;;;;;;9.13;97.89;100618.25;10419664;28;20080;-76
2023/03/17 04:13:22;;;;;;;3.13;2.30;;;;;;;9.15;97.82;100616.16;10417706;28;20469;-76
2023/03/17 04:18:23;;;;;;;3.33;2.97;;;;;;;9.24;97.79;100623.09;10418806;28;20124;-76
2023/03/17 04:23:23;;;;;;;6.90;3.30;;;;;;;9.25;97.06;100624.78;10418066;28;20072;-76
2023/03/17 04:28:23;;;;;;;7.13;2.17;;;;;;;9.40;97.27;100613.88;10418978;28;20037;-76
2023/03/17 04:33:24;;;;;;;3.47;3.17;;;;;;;9.45;94.02;100625.78;10416909;28;20057;-76
2023/03/17 04:38:24;;;;;;;4.97;2.90;;;;;;;9.53;92.99;100628.31;10418091;28;20397;-76
2023/03/17 04:43:25;;;;;;;4.10;2.10;;;;;;;9.61;94.16;100607.59;10416954;28;20048;-76
2023/03/17 04:48:26;;;;;;;2.83;2.53;;;;;;;9.57;95.26;100617.09;10399867;28;20492;-76
2023/03/17 04:53:27;;;;;;;5.18;2.80;;;;;;;9.52;95.00;100610.44;10418234;28;20073;-76
2023/03/17 04:58:27;;;;;;;2.13;1.92;;;;;;;9.59;96.44;100586.13;10417923;28;20040;-76
2023/03/17 05:03:29;;;;;;;7.00;2.63;;;;;;;9.67;96.06;100568.94;10418165;28;20033;-76
2023/03/17 05:08:29;;;;;;;3.05;2.30;;;;;;;9.65;95.30;100606.97;10416167;28;20331;-76
2023/03/17 05:13:30;;;;;;;3.08;2.83;;;;;;;9.57;95.59;100584.66;10415429;28;20038;-76
2023/03/17 05:18:30;;;;;;;2.58;2.38;;;;;;;9.47;97.48;100547.19;10415096;28;20057;-76
2023/03/17 05:23:31;;;;;;;6.63;3.90;;;;;;;9.30;96.55;100562.88;10416772;28;20044;-76
2023/03/17 05:28:31;;;;;;;3.70;3.15;;;;;;;8.97;95.71;100622.88;10415964;28;20116;-77
2023/03/17 05:33:32;;;;;;;4.85;2.47;;;;;;;8.77;98.32;100611.03;10415086;28;20046;-76
2023/03/17 05:38:32;;;;;;;3.80;3.50;;;;;;;8.76;99.04;100583.22;10416080;28;20041;-76
2023/03/17 05:43:32;;;;;;;3.83;3.10;;;;;;;8.84;98.37;100568.75;10415002;28;20069;-76
2023/03/17 05:48:33;;;;;;;3.10;2.90;;;;;;;8.90;98.94;100605.75;10413958;28;20041;-77
2023/03/17 05:53:35;;;;;;;2.85;2.58;;;;;;;8.77;99.66;100589.44;10414493;28;20043;-76
2023/03/17 05:58:35;;;;;;;3.90;2.53;;;;;;;8.82;100.00;100577.03;10412450;28;20424;-76
2023/03/17 06:03:37;;;;;;;5.75;3.85;;;;;;;8.88;100.00;100570.03;10416002;28;20073;-77
2023/03/17 06:08:37;;;;;;;3.40;2.75;;;;;;;8.82;99.61;100587.00;10413251;28;20132;-76
2023/03/17 06:13:38;;;;;;;4.07;3.22;;;;;;;8.76;99.51;100599.41;10397489;28;20096;-76
2023/03/17 06:18:38;;;;;;;3.55;3.25;;;;;;;8.70;99.82;100599.34;10414711;28;20404;-75
2023/03/17 06:23:39;;;;;;;4.32;3.03;;;;;;;8.68;100.00;100593.31;10415584;28;20038;-76
2023/03/17 06:28:39;;;;;;;2.92;2.55;;;;;;;8.77;100.00;100581.34;10414075;28;20033;-75
2023/03/17 06:33:40;;;;;;;4.88;3.08;;;;;;;9.10;100.00;100592.47;10413267;28;20073;-77
2023/03/17 06:38:40;;;;;;;2.70;2.38;;;;;;;9.46;99.94;100602.28;10411926;28;20140;-77
2023/03/17 06:43:41;;;;;;;3.35;2.60;;;;;;;9.73;99.95;100595.16;10412334;28;20038;-75
2023/03/17 06:48:42;;;;;;;3.30;3.00;;;;;;;9.80;98.77;100608.75;10413185;28;20056;-76
2023/03/17 06:53:42;;;;;;;3.17;2.90;;;;;;;9.65;98.81;100606.16;10412222;28;20041;-75
2023/03/17 06:58:44;;;;;;;3.22;2.92;;;;;;;9.58;99.74;100618.78;10413211;28;20087;-78
2023/03/17 07:03:44;;;;;;;3.60;3.08;;;;;;;9.50;99.46;100601.66;10397389;28;20034;-75
2023/03/17 07:08:46;;;;;;;5.65;3.65;;;;;;;9.54;99.12;100613.78;10417546;28;20034;-73
2023/03/17 07:13:46;;;;;;;4.45;3.72;;;;;;;9.55;98.78;100596.53;10404911;28;20030;-74
2023/03/17 07:18:47;;;;;;;3.22;2.92;;;;;;;9.61;98.27;100610.28;10421471;28;20026;-74
2023/03/17 07:23:47;;;;;;;3.33;2.97;;;;;;;9.71;95.64;100595.38;10420360;28;20044;-75
2023/03/17 07:28:48;;;;;;;3.75;3.42;;;;;;;9.69;95.09;100608.25;10422192;28;20059;-77
2023/03/17 07:33:48;;;;;;;5.22;3.65;;;;;;;9.91;96.91;100646.84;10419074;28;20050;-78
2023/03/17 07:38:48;;;;;;;4.63;3.25;;;;;;;10.13;94.44;100620.53;10418450;28;20026;-76
2023/03/17 07:43:49;;;;;;;7.93;3.75;;;;;;;10.24;94.53;100619.13;10421158;28;20044;-76
2023/03/17 07:48:49;;;;;;;7.65;4.13;;;;;;;10.36;95.52;100625.66;10419625;28;20067;-76
2023/03/17 07:53:50;;;;;;;5.30;3.70;;;;;;;11.77;90.46;100613.84;10419512;28;20457;-77
2023/03/17 07:58:51;;;;;;;6.57;4.00;;;;;;;12.95;85.26;100613.53;10418158;28;20057;-75
2023/03/17 08:03:51;;;;;;;8.10;3.50;;;;;;;13.85;79.85;100600.41;10421422;28;20041;-75
2023/03/17 08:08:55;;;;;;;5.68;4.30;;;;;;;14.69;78.07;100597.06;10419838;28;20433;-76
2023/03/17 08:13:55;;;;;;;6.55;4.35;;;;;;;15.03;75.57;100593.59;10417553;28;20064;-76
2023/03/17 08:18:57;;;;;;;3.83;3.45;;;;;;;15.28;67.38;100601.59;10350467;28;20084;-77
2023/03/17 08:23:58;;;;;;;4.93;4.22;;;;;;;15.35;66.01;100609.66;10417884;28;20033;-76
2023/03/17 08:28:58;;;;;;;5.63;4.05;;;;;;;15.45;66.64;100615.34;10417872;28;20029;-77
2023/03/17 08:33:58;;;;;;;7.15;4.47;;;;;;;15.41;68.10;100610.59;10419404;28;20057;-77
2023/03/17 08:38:59;;;;;;;5.65;4.10;;;;;;;15.71;71.81;100626.88;10418237;28;20121;-76
2023/03/17 08:43:59;;;;;;;6.53;4.15;;;;;;;16.10;65.07;100621.72;10352519;28;20111;-79
2023/03/17 08:49:00;;;;;;;12.45;5.05;;;;;;;16.32;61.29;100621.91;10417837;28;20068;-77
2023/03/17 08:54:01;;;;;;;4.47;3.95;;;;;;;16.49;63.21;100625.53;10416771;28;20028;-77
2023/03/17 08:59:04;;;;;;;4.95;4.35;;;;;;;16.85;64.42;100629.00;10417390;28;20037;-77
2023/03/17 09:04:04;;;;;;;4.95;4.00;;;;;;;17.29;63.59;100629.19;10400002;28;20029;-78
2023/03/17 09:09:05;;;;;;;5.97;4.72;;;;;;;17.07;57.30;100640.03;10399751;28;20124;-77
2023/03/17 09:14:06;;;;;;;4.97;4.03;;;;;;;17.17;55.28;100638.31;10415921;28;20111;-76
2023/03/17 09:19:07;;;;;;;7.28;4.00;;;;;;;17.76;61.08;100648.81;10416774;28;20114;-77
2023/03/17 09:24:08;;;;;;;11.23;4.13;;;;;;;18.54;60.37;100646.03;10415279;28;20041;-77
2023/03/17 09:29:09;;;;;;;5.50;4.20;;;;;;;18.03;56.14;100648.97;10414646;28;20038;-77
2023/03/17 09:34:09;;;;;;;5.95;4.32;;;;;;;17.47;56.55;100661.78;10415722;28;20420;-76
2023/03/17 09:39:10;;;;;;;4.65;3.95;;;;;;;16.46;58.50;100665.13;10414622;28;20032;-75
2023/03/17 09:45:05;;;;;;;10.20;4.90;;;;;;;15.78;64.41;100663.91;10415947;28;20129;-77
2023/03/17 09:50:16;;;;;;;5.05;4.30;;;;;;;15.15;62.76;100674.59;10364963;28;20056;-76
2023/03/17 09:55:23;;;;;;;6.38;5.50;;;;;;;15.08;64.90;100696.50;10384003;28;20029;-76
2023/03/17 10:00:25;;;;;;;4.80;3.95;;;;;;;16.45;64.75;100706.34;10414217;28;20033;-76
2023/03/17 10:05:30;;;;;;;4.70;4.28;;;;;;;16.66;62.78;100705.72;10414220;28;20029;-76
2023/03/17 10:10:35;;;;;;;4.35;3.95;;;;;;;17.03;60.26;100694.41;10380897;28;20416;-77
2023/03/17 10:15:48;;;;;;;8.35;5.30;;;;;;;16.80;60.08;100695.34;10412688;28;20376;-76
2023/03/17 10:20:51;;;;;;;9.95;4.53;;;;;;;16.71;66.32;100694.03;10414030;28;20101;-75
2023/03/17 10:25:51;;;;;;;9.55;4.65;;;;;;;17.16;69.21;100699.56;10396815;28;20461;-75
2023/03/17 10:30:52;;;;;;;12.40;4.63;;;;;;;17.24;64.71;100687.41;10398294;28;20191;-75
2023/03/17 10:35:53;;;;;;;5.78;4.18;;;;;;;17.08;62.16;100675.34;10414085;28;20033;-76
2023/03/17 10:40:55;;;;;;;7.30;3.85;;;;;;;16.55;65.14;100686.59;10415462;28;20154;-75
2023/03/17 10:46:01;;;;;;;9.00;4.55;;;;;;;16.51;69.41;100676.16;10411024;28;20037;-75
2023/03/17 10:51:06;;;;;;;4.40;3.72;;;;;;;16.35;66.54;100674.19;10425834;28;20100;-76
2023/03/17 10:56:19;;;;;;;13.15;5.53;;;;;;;15.97;66.53;100661.88;10428077;28;20075;-77
2023/03/17 11:01:20;;;;;;;9.23;4.13;;;;;;;15.96;67.86;100671.16;10411656;28;20026;-77
2023/03/17 11:06:36;;;;;;;6.85;4.68;;;;;;;15.56;68.58;100671.81;10427885;28;20068;-77
2023/03/17 11:11:45;;;;;;;5.22;4.22;;;;;;;15.05;70.09;100656.91;10412709;28;20025;-76
2023/03/17 11:17:26;;;;;;;12.10;5.57;;;;;;;14.93;74.33;100664.22;10412129;28;20017;-77
2023/03/17 11:22:39;;;;;;;6.25;5.18;;;;;;;14.75;75.49;100651.47;10432036;28;20025;-77
2023/03/17 11:27:45;;;;;;;7.90;5.25;;;;;;;14.63;74.14;100634.25;10427221;28;20053;-76
2023/03/17 11:32:52;;;;;;;;;;;;;;;15.24;79.25;100613.19;10427671;28;20388;-75
2023/03/17 11:38:16;;;;;;;9.32;5.03;;;;;;;16.16;79.87;100566.13;10428986;28;19924;-77
2023/03/17 11:43:38;;;;;;;6.60;4.93;;;;;;;16.77;80.43;100561.00;10412877;28;20033;-77
2023/03/17 11:48:42;;;;;;;13.05;5.60;;;;;;;18.04;77.54;100595.00;10427643;28;20029;-76
2023/03/17 11:54:23;;;;;;;6.53;5.80;;;;;;;18.94;63.34;100584.47;10424025;28;20026;-76
2023/03/17 11:59:39;;;;;;;7.07;4.82;;;;;;;19.07;64.76;100591.44;10421408;28;20026;-78
2023/03/17 12:04:52;;;;;;;5.30;4.73;;;;;;;19.10;57.83;100599.97;10420649;28;20105;-76
2023/03/17 12:10:04;;;;;;;7.70;5.53;;;;;;;18.96;57.92;100620.72;10403714;28;20122;-77
2023/03/17 12:15:09;;;;;;;8.25;5.57;;;;;;;17.53;61.95;100641.63;10418734;28;20460;-77
2023/03/17 12:20:30;;;;;;;6.82;5.60;;;;;;;17.46;70.14;100640.16;10418395;28;20029;-75
2023/03/17 12:25:39;;;;;;;6.78;4.38;;;;;;;17.35;65.95;100642.69;10385314;28;20037;-76
2023/03/17 12:30:51;;;;;;;7.90;4.78;;;;;;;16.73;68.66;100656.34;10418139;28;20042;-78
2023/03/17 12:35:51;;;;;;;7.90;5.43;;;;;;;16.34;66.84;100650.66;10401364;28;20041;-78
2023/03/17 12:41:10;;;;;;;7.82;5.32;;;;;;;16.06;70.08;100636.94;10417024;28;20065;-74
2023/03/17 12:46:27;;;;;;;11.13;5.82;;;;;;;16.14;71.14;100645.56;10419195;28;20044;-73
2023/03/17 12:51:34;;;;;;;12.80;5.57;;;;;;;16.20;73.60;100643.78;10401601;28;20034;-73
2023/03/17 12:56:35;;;;;;;13.43;6.50;;;;;;;16.27;71.58;100628.09;10417265;28;20108;-75
2023/03/17 13:01:41;;;;;;;6.45;5.45;;;;;;;16.52;73.07;100644.16;10399864;28;20042;-77
2023/03/17 13:07:04;;;;;;;7.70;5.90;;;;;;;16.69;74.78;100645.06;10416960;28;20106;-75
2023/03/17 13:12:05;;;;;;;7.30;5.13;;;;;;;16.85;77.06;100640.75;10412512;28;20073;-74
2023/03/17 13:17:25;;;;;;;13.07;6.90;;;;;;;17.43;76.57;100633.25;10398748;28;20113;-74
2023/03/17 13:22:34;;;;;;;15.07;6.03;;;;;;;18.46;74.45;100619.06;10415970;28;20037;-72
2023/03/17 13:27:38;;;;;;;6.78;4.90;;;;;;;17.85;71.29;100610.91;10400007;28;20037;-76
2023/03/17 13:32:39;;;;;;;5.50;4.35;;;;;;;17.53;76.32;100605.22;10416666;28;20343;-77
2023/03/17 13:37:51;;;;;;;5.82;4.60;;;;;;;17.28;74.54;100592.78;10416096;28;20119;-76
2023/03/17 13:43:14;;;;;;;15.02;4.63;;;;;;;17.23;73.49;100598.19;10418376;28;20124;-76
2023/03/17 13:48:35;;;;;;;7.00;4.90;;;;;;;17.32;78.29;100591.19;10398690;28;20060;-75
2023/03/17 13:53:42;;;;;;;9.50;5.20;;;;;;;17.59;78.95;100582.31;10415827;28;20036;-77
2023/03/17 13:58:56;;;;;;;4.80;4.32;;;;;;;17.60;73.15;100565.59;10383581;28;20036;-73
2023/03/17 14:03:57;;;;;;;5.35;4.82;;;;;;;17.32;72.78;100563.00;10397407;28;20409;-76
2023/03/17 14:09:07;;;;;;;15.52;4.43;;;;;;;17.14;70.40;100575.03;10416080;28;20049;-77
2023/03/17 14:14:11;;;;;;;10.15;5.03;;;;;;;17.15;69.14;100565.75;10397958;28;20514;-75
2023/03/17 14:19:25;;;;;;;5.70;3.97;;;;;;;17.54;72.19;100547.44;10396032;28;20036;-76
2023/03/17 14:24:32;;;;;;;8.20;5.07;;;;;;;17.40;73.71;100544.25;10414754;28;20107;-76
2023/03/17 14:29:32;;;;;;;5.50;4.80;;;;;;;17.36;73.38;100531.31;10397713;28;20025;-75
2023/03/17 14:34:33;;;;;;;6.35;4.57;;;;;;;17.44;76.46;100523.50;10396829;28;20057;-77
2023/03/17 14:39:33;;;;;;;4.97;4.55;;;;;;;17.51;72.58;100522.47;10412602;28;20065;-78
2023/03/17 14:44:41;;;;;;;8.30;4.65;;;;;;;17.47;75.07;100507.66;10415662;28;20076;-77
2023/03/17 14:49:41;;;;;;;5.85;5.35;;;;;;;17.50;72.47;100520.84;10397006;28;20044;-76
2023/03/17 14:54:42;;;;;;;7.55;5.07;;;;;;;17.35;71.08;100532.38;10413360;28;20378;-73
2023/03/17 14:59:43;;;;;;;11.27;5.75;;;;;;;17.31;71.92;100523.03;10413482;28;20048;-77
2023/03/17 15:04:57;;;;;;;17.50;5.68;;;;;;;17.24;70.83;100519.66;10412575;28;20109;-79
2023/03/17 15:10:02;;;;;;;10.20;6.32;;;;;;;17.05;70.43;100522.66;10396185;28;20029;-77
2023/03/17 15:15:17;;;;;;;12.45;5.75;;;;;;;17.06;70.29;100526.19;10413774;28;20087;-78
2023/03/17 15:20:18;;;;;;;6.40;5.72;;;;;;;17.10;71.41;100521.88;10396845;28;20061;-75
2023/03/17 15:25:30;;;;;;;11.88;4.93;;;;;;;16.86;67.84;100533.00;10413627;28;20057;-73
2023/03/17 15:30:31;;;;;;;8.52;6.57;;;;;;;16.60;69.53;100528.16;10418942;28;20029;-75
2023/03/17 15:35:31;;;;;;;8.75;6.65;;;;;;;16.51;71.69;100517.59;10436168;28;20041;-77
2023/03/17 15:40:32;;;;;;;6.55;5.75;;;;;;;16.40;69.32;100521.25;10419836;28;20120;-76
2023/03/17 15:45:32;;;;;;;6.85;4.93;;;;;;;16.32;73.10;100535.28;10419492;28;20056;-77
2023/03/17 15:50:32;;;;;;;6.88;5.57;;;;;;;16.32;71.92;100527.09;10371941;28;20048;-78
2023/03/17 15:55:33;;;;;;;6.22;5.47;;;;;;;16.26;73.84;100526.16;10402382;28;20115;-78
2023/03/17 16:00:33;;;;;;;9.82;6.10;;;;;;;16.31;73.69;100533.66;10420157;28;20492;-77
2023/03/17 16:05:34;;;;;;;6.72;5.75;;;;;;;16.21;73.53;100528.00;10419306;28;20033;-79
2023/03/17 16:10:34;;;;;;;10.57;6.05;;;;;;;16.10;71.85;100529.69;10404197;28;20099;-79
2023/03/17 16:15:39;;;;;;;9.13;5.68;;;;;;;16.04;73.31;100527.91;10420927;28;20057;-78
2023/03/17 16:20:45;;;;;;;10.43;5.68;;;;;;;16.00;74.47;100538.50;10421404;28;20080;-79
2023/03/17 16:25:45;;;;;;;9.02;5.88;;;;;;;15.97;75.15;100536.25;10403643;28;20404;-79
2023/03/17 16:30:46;;;;;;;8.43;6.72;;;;;;;15.94;74.84;100534.00;10418230;28;20163;-79
2023/03/17 16:35:49;;;;;;;10.70;7.70;;;;;;;15.93;76.08;100535.09;10402360;28;20164;-79
2023/03/17 16:40:54;;;;;;;12.82;6.22;;;;;;;15.91;77.00;100539.94;10401877;28;20195;-78
2023/03/17 16:45:57;;;;;;;14.32;7.43;;;;;;;15.83;77.13;100540.34;10400952;28;20342;-78
2023/03/17 16:50:57;;;;;;;8.18;5.70;;;;;;;15.84;78.14;100535.72;10417720;28;20025;-78
2023/03/17 16:55:58;;;;;;;10.02;7.60;;;;;;;15.73;78.51;100534.66;10417762;28;20112;-78
2023/03/17 17:01:04;;;;;;;19.67;7.78;;;;;;;15.67;79.29;100535.63;10400506;28;20504;-80
2023/03/17 17:06:05;;;;;;;12.57;7.43;;;;;;;15.62;80.14;100538.22;10401618;28;20033;-78
2023/03/17 17:11:06;;;;;;;10.82;6.97;;;;;;;15.57;80.43;100542.50;10401269;28;20111;-79
2023/03/17 17:16:26;;;;;;;11.45;8.50;;;;;;;15.53;81.43;100540.47;10416639;28;20118;-78
2023/03/17 17:21:27;;;;;;;10.70;8.18;;;;;;;15.46;81.39;100540.59;10416885;28;20033;-80
2023/03/17 17:26:27;;;;;;;15.02;8.73;;;;;;;15.44;82.11;100545.44;10400990;28;20029;-78
2023/03/17 17:31:28;;;;;;;11.20;7.47;;;;;;;15.35;82.54;100539.53;10418136;28;20396;-78
2023/03/17 17:36:29;;;;;;;9.65;6.75;;;;;;;15.34;83.01;100545.22;10416037;28;20053;-80
2023/03/17 17:41:29;;;;;;;12.85;6.25;;;;;;;15.31;83.09;100553.88;10416200;28;20037;-79
2023/03/17 17:46:30;;;;;;;11.15;8.32;;;;;;;15.26;83.18;100551.06;10416295;28;20033;-79
2023/03/17 17:51:31;;;;;;;17.67;7.10;;;;;;;15.22;83.95;100558.03;10415060;28;20041;-79
2023/03/17 17:56:35;;;;;;;10.35;7.97;;;;;;;15.16;84.39;100550.81;10416474;28;20353;-77
2023/03/17 18:01:35;;;;;;;14.18;7.40;;;;;;;15.09;84.85;100551.75;10414312;28;20124;-79
2023/03/17 18:06:36;;;;;;;22.52;8.13;;;;;;;15.04;85.00;100546.16;10416856;28;20398;-77
2023/03/17 18:11:40;;;;;;;8.15;6.75;;;;;;;15.02;85.20;100556.47;10414310;28;20056;-78
2023/03/17 18:16:40;;;;;;;12.45;7.28;;;;;;;14.99;85.59;100567.84;10414632;28;20033;-78
2023/03/17 18:21:41;;;;;;;20.67;7.97;;;;;;;14.96;85.81;100562.03;10415166;28;20112;-79
2023/03/17 18:26:41;;;;;;;9.05;7.65;;;;;;;14.95;85.60;100565.84;10414336;28;20116;-79
2023/03/17 18:31:45;;;;;;;10.88;7.13;;;;;;;14.91;85.36;100565.47;10415974;28;20382;-78
2023/03/17 18:36:46;;;;;;;12.13;7.50;;;;;;;14.93;85.40;100567.94;10416247;28;20041;-79
2023/03/17 18:41:47;;;;;;;11.25;6.82;;;;;;;14.85;84.91;100572.69;10416052;28;20052;-80
2023/03/17 18:46:47;;;;;;;15.18;6.97;;;;;;;14.83;85.21;100587.59;10415221;28;20036;-79
2023/03/17 18:51:48;;;;;;;10.20;7.97;;;;;;;14.78;85.38;100590.22;10417862;28;20043;-78
2023/03/17 18:56:48;;;;;;;14.15;8.02;;;;;;;14.69;85.42;100597.88;10419147;28;20108;-78
2023/03/17 19:01:49;;;;;;;10.52;7.38;;;;;;;14.63;86.04;100586.00;10401273;28;20037;-80
2023/03/17 19:06:49;;;;;;;12.38;6.63;;;;;;;14.60;86.57;100583.75;10424650;28;20042;-78
2023/03/17 19:11:50;;;;;;;8.15;6.25;;;;;;;14.55;87.01;100578.19;10426291;28;20103;-77
2023/03/17 19:16:50;;;;;;;15.15;7.03;;;;;;;14.52;87.00;100586.81;10423295;28;20042;-77
2023/03/17 19:21:51;;;;;;;8.55;6.53;;;;;;;14.48;87.47;100582.00;10422447;28;20044;-77
2023/03/17 19:26:51;;;;;;;6.65;6.03;;;;;;;14.42;87.63;100597.38;10422457;28;20041;-77
2023/03/17 19:31:52;;;;;;;7.63;6.28;;;;;;;14.35;87.82;100588.47;10420625;28;20081;-78
2023/03/17 19:36:53;;;;;;;11.25;6.90;;;;;;;14.28;87.96;100590.47;10423153;28;20029;-78
2023/03/17 19:41:54;;;;;;;11.10;6.78;;;;;;;14.23;88.24;100583.00;10421505;28;20388;-76
2023/03/17 19:46:54;;;;;;;12.68;6.95;;;;;;;14.09;88.65;100600.53;10420802;28;20149;-76
2023/03/17 19:51:55;;;;;;;8.00;6.35;;;;;;;14.06;89.11;100595.56;10422073;28;20511;-78
2023/03/17 19:56:56;;;;;;;12.20;8.27;;;;;;;14.00;89.32;100597.28;10422370;28;20116;-77
2023/03/17 20:01:57;;;;;;;12.30;7.10;;;;;;;13.92;89.61;100600.34;10421095;28;20033;-78
2023/03/17 20:06:57;;;;;;;9.13;6.18;;;;;;;13.83;89.58;100597.06;10421955;28;20037;-76
2023/03/17 20:11:58;;;;;;;14.27;6.75;;;;;;;13.78;89.80;100598.81;10402594;28;20466;-76
2023/03/17 20:16:58;;;;;;;15.93;7.35;;;;;;;13.56;90.15;100607.41;10418059;28;20037;-75
2023/03/17 20:21:59;;;;;;;15.18;7.82;;;;;;;13.37;90.62;100620.16;10401995;28;20037;-75
2023/03/17 20:27:00;;;;;;;10.27;7.45;;;;;;;13.06;92.92;100623.72;10419901;28;20037;-74
2023/03/17 20:32:01;;;;;;;9.18;7.72;;;;;;;12.92;93.62;100635.72;10419125;28;20045;-75
2023/03/17 20:37:02;;;;;;;9.25;7.63;;;;;;;12.76;92.76;100632.50;10419080;28;20039;-76
2023/03/17 20:42:08;;;;;;;13.82;8.90;;;;;;;12.56;92.74;100648.88;10417906;28;20046;-74
2023/03/17 20:47:09;;;;;;;15.13;8.23;;;;;;;12.32;92.86;100655.06;10419748;28;20041;-76
2023/03/17 20:52:12;;;;;;;13.75;8.63;;;;;;;12.15;93.92;100660.13;10418202;28;20037;-76
2023/03/17 20:57:15;;;;;;;13.40;8.77;;;;;;;12.18;95.67;100667.84;10401190;28;20076;-77
2023/03/17 21:02:16;;;;;;;17.38;9.30;;;;;;;12.26;95.58;100678.47;10417412;28;20112;-76
2023/03/17 21:07:17;;;;;;;14.50;8.52;;;;;;;12.20;96.10;100665.75;10401215;28;20068;-76
2023/03/17 21:12:18;;;;;;;12.60;9.40;;;;;;;12.13;95.39;100672.25;10417489;28;20159;-77
2023/03/17 21:17:19;;;;;;;10.68;9.27;;;;;;;11.90;100.00;100673.56;10416202;28;20113;-75
2023/03/17 21:22:19;;;;;;;12.35;8.55;;;;;;;11.81;100.00;100675.63;10417243;28;20040;-77
2023/03/17 21:27:20;;;;;;;12.98;9.57;;;;;;;11.78;100.00;100670.63;10416749;28;20081;-77
2023/03/17 21:32:21;;;;;;;10.32;8.85;;;;;;;11.76;100.00;100670.00;10416465;28;20450;-78
2023/03/17 21:37:21;;;;;;;10.73;9.18;;;;;;;11.66;100.00;100666.88;10399254;28;20051;-77
2023/03/17 21:42:23;;;;;;;11.98;7.32;;;;;;;11.53;100.00;100673.16;10416699;28;20056;-77
2023/03/17 21:47:23;;;;;;;15.88;8.73;;;;;;;11.44;100.00;100674.41;10399133;28;20041;-76
2023/03/17 21:52:24;;;;;;;15.30;10.13;;;;;;;11.54;100.00;100685.66;10399458;28;20033;-77
2023/03/17 21:57:26;;;;;;;12.32;8.95;;;;;;;11.66;100.00;100682.31;10417958;28;20044;-76
2023/03/17 22:02:27;;;;;;;16.77;9.73;;;;;;;11.74;100.00;100691.09;10419929;28;20036;-76
2023/03/17 22:07:28;;;;;;;17.58;9.48;;;;;;;11.70;100.00;100687.09;10416951;28;20041;-78
2023/03/17 22:12:28;;;;;;;15.23;10.13;;;;;;;11.62;100.00;100687.34;10417042;28;20038;-78
2023/03/17 22:17:28;;;;;;;19.00;10.48;;;;;;;11.61;100.00;100682.94;10415507;28;20033;-78
2023/03/17 22:22:29;;;;;;;18.95;11.43;;;;;;;11.45;100.00;100691.50;10415079;28;20128;-78
2023/03/17 22:27:30;;;;;;;17.73;9.88;;;;;;;11.20;100.00;100691.28;10414079;28;20491;-79
2023/03/17 22:32:31;;;;;;;11.85;10.10;;;;;;;11.06;100.00;100698.56;10398427;28;20448;-77
2023/03/17 22:37:31;;;;;;;14.45;10.57;;;;;;;11.06;100.00;100695.84;10412612;28;20252;-77
2023/03/17 22:42:31;;;;;;;10.98;9.38;;;;;;;11.08;100.00;100710.88;10414310;28;20042;-77
2023/03/17 22:47:32;;;;;;;11.48;9.73;;;;;;;10.97;100.00;100710.63;10413892;28;20117;-77
2023/03/17 22:52:32;;;;;;;17.90;11.40;;;;;;;10.76;100.00;100711.63;10414381;28;20040;-78
2023/03/17 22:57:33;;;;;;;25.52;12.07;;;;;;;10.62;100.00;100705.31;10412506;28;20380;-79
2023/03/17 23:02:34;;;;;;;14.20;10.10;;;;;;;10.53;100.00;100720.06;10414424;28;20048;-79
2023/03/17 23:07:35;;;;;;;22.60;10.90;;;;;;;10.41;100.00;100706.28;10414857;28;20041;-77
2023/03/17 23:12:36;;;;;;;36.90;12.10;;;;;;;10.42;100.00;100710.63;10415229;28;20041;-79
2023/03/17 23:17:37;;;;;;;20.83;12.85;;;;;;;10.34;100.00;100700.84;10412753;28;20088;-79
2023/03/17 23:22:37;;;;;;;14.43;11.73;;;;;;;10.28;100.00;100692.69;10412493;28;20061;-79